Time;durP1;ratioP1;P1;durP2;ratioP2;P2;SDS_P1;SDS_P2;PMS_P1;PMS_P2;Temp;Humidity;BMP_temperature;BMP_pressure;BME280_temperature;BME280_humidity;BME280_pressure;Samples;Min_cycle;Max_cycle;Signal;HPM_P1;HPM_P2
2022/12/30 00:01:40;;;;;;;4.17;2.33;;;;;;;-141.59;100.00;61776.25;5054504;28;20196;-80
2022/12/30 00:04:09;;;;;;;3.67;2.80;;;;;;;-141.59;100.00;61776.25;5057363;28;20190;-80
2022/12/30 00:06:36;;;;;;;3.93;2.70;;;;;;;-141.59;100.00;61776.25;5063031;28;20206;-80
2022/12/30 00:09:05;;;;;;;3.67;2.63;;;;;;;-141.59;100.00;61776.25;5062562;28;20202;-80
2022/12/30 00:11:36;;;;;;;4.30;2.50;;;;;;;-141.59;100.00;61776.25;5055990;28;20278;-80
2022/12/30 00:33:59;;;;;;;4.30;2.40;;;;;;;-141.59;100.00;61776.25;5055808;28;20210;-80
2022/12/30 00:36:32;;;;;;;2.40;2.20;;;;;;;-141.59;100.00;61776.25;5059051;28;20239;-80
2022/12/30 00:38:59;;;;;;;3.90;2.40;;;;;;;-141.59;100.00;61776.25;5052325;28;20213;-80
2022/12/30 00:44:19;;;;;;;3.33;2.70;;;;;;;-141.59;100.00;61776.25;5037459;28;20210;-80
2022/12/30 00:46:47;;;;;;;4.70;2.67;;;;;;;-141.59;100.00;61776.25;5056262;28;20225;-80
2022/12/30 00:57:31;;;;;;;2.83;2.47;;;;;;;-141.59;100.00;61776.25;5063216;28;20263;-79
2022/12/30 00:59:58;;;;;;;4.07;3.23;;;;;;;-141.59;100.00;61776.25;5067448;28;20231;-80
2022/12/30 01:02:26;;;;;;;4.30;3.03;;;;;;;-141.59;100.00;61776.25;5054685;28;20276;-80
2022/12/30 01:05:01;;;;;;;4.77;3.50;;;;;;;-141.59;100.00;61776.25;5057758;28;20221;-79
2022/12/30 01:07:31;;;;;;;6.67;3.57;;;;;;;-141.59;100.00;61776.25;5058337;28;20194;-80
2022/12/30 01:09:59;;;;;;;8.03;3.50;;;;;;;-141.59;100.00;61776.25;5057371;28;20229;-80
2022/12/30 01:12:29;;;;;;;6.83;3.87;;;;;;;-141.59;100.00;61776.25;5059076;28;20244;-80
2022/12/30 01:14:59;;;;;;;4.77;3.17;;;;;;;-141.59;100.00;61776.25;5067107;28;20273;-80
2022/12/30 01:17:32;;;;;;;7.13;3.30;;;;;;;-141.59;100.00;61776.25;5071926;28;20194;-80
2022/12/30 01:19:59;;;;;;;4.63;3.33;;;;;;;-141.59;100.00;61776.25;5059837;28;20222;-80
2022/12/30 01:22:29;;;;;;;5.43;3.07;;;;;;;-141.59;100.00;61776.25;5056608;28;20230;-80
2022/12/30 01:24:57;;;;;;;9.73;3.60;;;;;;;-141.59;100.00;61776.25;5060906;28;20206;-80
2022/12/30 01:27:27;;;;;;;5.17;3.43;;;;;;;-141.59;100.00;61776.25;5060221;28;20201;-80
2022/12/30 01:29:54;;;;;;;3.87;2.80;;;;;;;-141.59;100.00;61776.25;5053113;28;20209;-80
2022/12/30 01:32:23;;;;;;;3.97;3.00;;;;;;;-141.59;100.00;61776.25;5055186;28;20197;-80
2022/12/30 01:35:00;;;;;;;4.43;2.90;;;;;;;-141.59;100.00;61776.25;5056771;28;20210;-80
2022/12/30 01:37:32;;;;;;;3.77;2.90;;;;;;;-141.59;100.00;61776.25;5071667;28;20205;-79
2022/12/30 01:39:59;;;;;;;3.87;3.33;;;;;;;-141.59;100.00;61776.25;5059818;28;20229;-80
2022/12/30 01:42:38;;;;;;;5.30;3.30;;;;;;;-141.59;100.00;61776.25;5063025;28;20288;-79
2022/12/30 01:45:17;;;;;;;4.83;3.40;;;;;;;-141.59;100.00;61776.25;5060037;28;20287;-79
2022/12/30 01:47:50;;;;;;;6.30;3.50;;;;;;;-141.59;100.00;61776.25;5051584;28;20228;-80
2022/12/30 01:50:27;;;;;;;5.20;3.33;;;;;;;-141.59;100.00;61776.25;5059441;28;20215;-79
2022/12/30 01:52:58;;;;;;;4.80;3.57;;;;;;;-141.59;100.00;61776.25;5053177;28;20273;-79
2022/12/30 01:55:32;;;;;;;4.53;3.20;;;;;;;-141.59;100.00;61776.25;5065014;28;20202;-79
2022/12/30 01:58:04;;;;;;;4.57;3.10;;;;;;;-141.59;100.00;61776.25;5060899;28;20190;-79
2022/12/30 02:00:36;;;;;;;5.57;3.17;;;;;;;-141.59;100.00;61776.25;5061419;28;20206;-79
2022/12/30 02:03:06;;;;;;;4.80;3.30;;;;;;;-141.59;100.00;61776.25;5076237;28;20229;-79
2022/12/30 02:05:38;;;;;;;3.63;3.30;;;;;;;-141.59;100.00;61776.25;5064292;28;20354;-79
2022/12/30 02:08:10;;;;;;;5.67;2.97;;;;;;;-141.59;100.00;61776.25;5061135;28;20219;-80
2022/12/30 02:10:39;;;;;;;5.43;3.50;;;;;;;-141.59;100.00;61776.25;5063950;28;20316;-79
2022/12/30 02:13:06;;;;;;;4.03;3.30;;;;;;;-141.59;100.00;61776.25;5068079;28;20236;-79
2022/12/30 02:15:39;;;;;;;5.03;3.40;;;;;;;-141.59;100.00;61776.25;5075303;28;20272;-79
2022/12/30 02:18:19;;;;;;;6.57;3.87;;;;;;;-141.59;100.00;61776.25;5064067;28;20221;-79
2022/12/30 02:21:27;;;;;;;4.40;3.50;;;;;;;-141.59;100.00;61776.25;5059398;28;20232;-79
2022/12/30 02:24:28;;;;;;;5.33;3.33;;;;;;;-141.59;100.00;61776.25;5065982;28;20198;-79
2022/12/30 02:27:12;;;;;;;4.77;3.20;;;;;;;-141.59;100.00;61776.25;5069197;28;20213;-79
2022/12/30 02:30:02;;;;;;;5.07;3.20;;;;;;;-141.59;100.00;61776.25;5073117;28;20288;-79
2022/12/30 02:32:42;;;;;;;4.30;3.43;;;;;;;-141.59;100.00;61776.25;5069759;28;20197;-79
2022/12/30 02:35:20;;;;;;;4.50;3.37;;;;;;;-141.59;100.00;61776.25;5066511;28;20216;-79
2022/12/30 02:38:00;;;;;;;3.87;3.07;;;;;;;-141.59;100.00;61776.25;5061797;28;20202;-79
2022/12/30 02:44:36;;;;;;;4.90;3.30;;;;;;;-141.59;100.00;61776.25;5062220;28;20217;-79
2022/12/30 02:46:12;;;;;;;6.03;3.50;;;;;;;-141.59;100.00;61776.25;5059920;28;20206;-79
2022/12/30 02:48:46;;;;;;;5.40;3.70;;;;;;;-141.59;100.00;61776.25;5067955;28;20298;-78
2022/12/30 02:54:00;;;;;;;4.30;3.30;;;;;;;-141.59;100.00;61776.25;5054106;28;20210;-79
2022/12/30 02:56:27;;;;;;;5.83;3.60;;;;;;;-141.59;100.00;61776.25;5069430;28;20248;-78
2022/12/30 03:04:48;;;;;;;5.20;3.60;;;;;;;-141.59;100.00;61776.25;5065185;28;20206;-78
2022/12/30 03:07:26;;;;;;;10.47;5.80;;;;;;;-141.59;100.00;61776.25;5067481;28;20622;-79
2022/12/30 03:13:21;;;;;;;5.33;4.10;;;;;;;-141.59;100.00;61776.25;4982486;28;20231;-78
2022/12/30 03:15:55;;;;;;;8.47;4.30;;;;;;;-141.59;100.00;61776.25;4979000;28;20290;-78
2022/12/30 03:18:24;;;;;;;7.00;4.10;;;;;;;-141.59;100.00;61776.25;5027349;28;20206;-78
2022/12/30 03:20:53;;;;;;;8.13;4.20;;;;;;;-141.59;100.00;61776.25;5057310;28;20222;-79
2022/12/30 03:28:53;;;;;;;10.10;4.50;;;;;;;-141.59;100.00;61776.25;5067208;28;20227;-78
2022/12/30 03:31:21;;;;;;;5.93;3.97;;;;;;;-141.59;100.00;61776.25;5069818;28;20224;-79
2022/12/30 03:33:48;;;;;;;7.17;4.30;;;;;;;-141.59;100.00;61776.25;5062352;28;20508;-78
2022/12/30 03:36:24;;;;;;;4.90;3.63;;;;;;;-141.59;100.00;61776.25;5067054;28;20281;-79
2022/12/30 03:38:59;;;;;;;6.17;4.10;;;;;;;-141.59;100.00;61776.25;5066371;28;20253;-78
2022/12/30 03:41:29;;;;;;;6.70;3.90;;;;;;;-141.59;100.00;61776.25;5056238;28;20225;-79
2022/12/30 03:43:59;;;;;;;5.13;3.90;;;;;;;-141.59;100.00;61776.25;5060460;28;20210;-78
2022/12/30 03:46:31;;;;;;;6.07;4.40;;;;;;;-141.59;100.00;61776.25;5060451;28;20206;-78
2022/12/30 03:48:59;;;;;;;5.27;3.97;;;;;;;-141.59;100.00;61776.25;5064060;28;20296;-79
2022/12/30 03:51:27;;;;;;;4.63;3.53;;;;;;;-141.59;100.00;61776.25;5066591;28;20240;-78
2022/12/30 03:53:55;;;;;;;4.60;3.87;;;;;;;-141.59;100.00;61776.25;5068666;28;20202;-78
2022/12/30 03:56:22;;;;;;;5.00;4.17;;;;;;;-141.59;100.00;61776.25;5053570;28;20213;-79
2022/12/30 03:58:49;;;;;;;4.80;4.07;;;;;;;-141.59;100.00;61776.25;5066185;28;20218;-78
2022/12/30 04:01:16;;;;;;;5.37;4.20;;;;;;;-141.59;100.00;61776.25;5054469;28;20217;-79
2022/12/30 04:03:43;;;;;;;7.33;4.37;;;;;;;-141.59;100.00;61776.25;5062581;28;20198;-78
2022/12/30 04:06:10;;;;;;;6.00;4.07;;;;;;;-141.59;100.00;61776.25;5062660;28;20190;-78
2022/12/30 04:08:39;;;;;;;6.90;4.33;;;;;;;-141.59;100.00;61776.25;5066711;28;20205;-79
2022/12/30 04:11:06;;;;;;;6.00;4.53;;;;;;;-141.59;100.00;61776.25;5057215;28;20273;-78
2022/12/30 04:13:33;;;;;;;4.57;4.03;;;;;;;-141.59;100.00;61776.25;5064251;28;20205;-78
2022/12/30 04:16:00;;;;;;;5.50;3.97;;;;;;;-141.59;100.00;61776.25;5055728;28;20204;-78
2022/12/30 04:18:41;;;;;;;6.23;3.90;;;;;;;-141.59;100.00;61776.25;5063201;28;20261;-78
2022/12/30 04:21:08;;;;;;;6.17;4.30;;;;;;;-141.59;100.00;61776.25;5059133;28;20218;-78
2022/12/30 04:23:40;;;;;;;9.83;7.13;;;;;;;-141.59;100.00;61776.25;5067971;28;20193;-78
2022/12/30 04:26:09;;;;;;;9.43;5.50;;;;;;;-141.59;100.00;61776.25;5059228;28;20210;-78
2022/12/30 04:28:36;;;;;;;5.40;4.00;;;;;;;-141.59;100.00;61776.25;5061231;28;20197;-78
2022/12/30 04:31:13;;;;;;;7.17;4.30;;;;;;;-141.59;100.00;61776.25;5058262;28;20280;-79
2022/12/30 04:33:41;;;;;;;5.27;3.90;;;;;;;-141.59;100.00;61776.25;5059643;28;20225;-78
2022/12/30 04:36:12;;;;;;;5.90;3.57;;;;;;;-141.59;100.00;61776.25;5063908;28;20297;-79
2022/12/30 04:38:43;;;;;;;4.53;3.60;;;;;;;-141.59;100.00;61776.25;5062666;28;20213;-78
2022/12/30 04:41:11;;;;;;;5.13;3.80;;;;;;;-141.59;100.00;61776.25;5067831;28;20233;-78
2022/12/30 04:43:42;;;;;;;5.63;3.70;;;;;;;-141.59;100.00;61776.25;5064627;28;20198;-78
2022/12/30 04:46:09;;;;;;;5.33;4.23;;;;;;;-141.59;100.00;61776.25;5067179;28;20210;-78
2022/12/30 04:48:36;;;;;;;6.63;4.30;;;;;;;-141.59;100.00;61776.25;5059278;28;20225;-78
2022/12/30 04:51:09;;;;;;;5.80;4.40;;;;;;;-141.59;100.00;61776.25;5066680;28;20229;-79
2022/12/30 04:53:36;;;;;;;5.20;4.20;;;;;;;-141.59;100.00;61776.25;5058778;28;20202;-78
2022/12/30 04:56:04;;;;;;;5.13;3.80;;;;;;;-141.59;100.00;61776.25;5060772;28;20265;-78
2022/12/30 04:58:33;;;;;;;5.73;3.73;;;;;;;-141.59;100.00;61776.25;5060055;28;20202;-78
2022/12/30 05:01:00;;;;;;;7.37;4.27;;;;;;;-141.59;100.00;61776.25;5054810;28;20217;-78
2022/12/30 05:03:28;;;;;;;4.10;3.43;;;;;;;-141.59;100.00;61776.25;5067286;28;20260;-78
2022/12/30 05:05:54;;;;;;;7.07;4.70;;;;;;;-141.59;100.00;61776.25;5061723;28;20196;-78
2022/12/30 05:08:21;;;;;;;5.70;4.07;;;;;;;-141.59;100.00;61776.25;5057733;28;20206;-78
2022/12/30 05:10:49;;;;;;;5.63;4.03;;;;;;;-141.59;100.00;61776.25;5060475;28;20221;-79
2022/12/30 05:13:17;;;;;;;5.43;3.70;;;;;;;-141.59;100.00;61776.25;5061721;28;20194;-78
2022/12/30 05:15:44;;;;;;;5.90;4.23;;;;;;;-141.59;100.00;61776.25;5073942;28;20216;-79
2022/12/30 05:18:12;;;;;;;4.67;3.93;;;;;;;-141.59;100.00;61776.25;5052407;28;20210;-79
2022/12/30 05:20:39;;;;;;;5.63;4.07;;;;;;;-141.59;100.00;61776.25;5068845;28;20225;-78
2022/12/30 05:26:13;;;;;;;5.47;4.13;;;;;;;-141.59;100.00;61776.25;5058619;28;20230;-78
2022/12/30 05:28:40;;;;;;;5.87;4.20;;;;;;;-141.59;100.00;61776.25;5059172;28;20265;-78
2022/12/30 05:31:07;;;;;;;6.83;4.87;;;;;;;-141.59;100.00;61776.25;5059451;28;20205;-78
2022/12/30 05:33:34;;;;;;;7.63;4.53;;;;;;;-141.59;100.00;61776.25;5057736;28;20230;-78
2022/12/30 05:36:04;;;;;;;8.73;4.60;;;;;;;-141.59;100.00;61776.25;5069300;28;20201;-79
2022/12/30 05:38:31;;;;;;;9.00;5.10;;;;;;;-141.59;100.00;61776.25;5057377;28;20239;-78
2022/12/30 05:40:59;;;;;;;9.77;5.27;;;;;;;-141.59;100.00;61776.25;5053709;28;20229;-78
2022/12/30 05:43:28;;;;;;;9.70;5.80;;;;;;;-141.59;100.00;61776.25;5066959;28;20193;-79
2022/12/30 05:45:58;;;;;;;10.20;6.33;;;;;;;-141.59;100.00;61776.25;5052991;28;20203;-78
2022/12/30 05:48:25;;;;;;;8.00;5.57;;;;;;;-141.59;100.00;61776.25;5050786;28;20269;-78
2022/12/30 05:50:52;;;;;;;9.93;6.67;;;;;;;-141.59;100.00;61776.25;5059485;28;20209;-78
2022/12/30 05:53:19;;;;;;;11.53;7.77;;;;;;;-141.59;100.00;61776.25;5058052;28;20271;-78
2022/12/30 05:55:46;;;;;;;10.50;7.30;;;;;;;-141.59;100.00;61776.25;5056656;28;20218;-78
2022/12/30 05:58:14;;;;;;;9.03;5.37;;;;;;;-141.59;100.00;61776.25;5050768;28;20206;-78
2022/12/30 06:00:41;;;;;;;7.63;5.93;;;;;;;-141.59;100.00;61776.25;5057677;28;20564;-78
2022/12/30 06:03:12;;;;;;;8.33;6.13;;;;;;;-141.59;100.00;61776.25;5057276;28;20225;-78
2022/12/30 06:05:39;;;;;;;8.67;6.70;;;;;;;-141.59;100.00;61776.25;5054773;28;20209;-78
2022/12/30 06:08:07;;;;;;;13.40;8.20;;;;;;;-141.59;100.00;61776.25;5056662;28;20206;-78
2022/12/30 06:10:34;;;;;;;13.10;7.70;;;;;;;-141.59;100.00;61776.25;5061656;28;20279;-79
2022/12/30 06:13:01;;;;;;;10.23;6.43;;;;;;;-141.59;100.00;61776.25;5064653;28;20213;-78
2022/12/30 06:15:28;;;;;;;9.20;5.83;;;;;;;-141.59;100.00;61776.25;5058118;28;20205;-78
2022/12/30 06:17:58;;;;;;;7.33;5.90;;;;;;;-141.59;100.00;61776.25;5061418;28;20217;-78
2022/12/30 06:20:27;;;;;;;9.37;7.30;;;;;;;-141.59;100.00;61776.25;5055610;28;20232;-78
2022/12/30 06:23:00;;;;;;;9.57;6.80;;;;;;;-141.59;100.00;61776.25;5055788;28;20225;-78
2022/12/30 06:25:27;;;;;;;8.73;6.37;;;;;;;-141.59;100.00;61776.25;5051349;28;20226;-79
2022/12/30 06:27:54;;;;;;;7.97;6.20;;;;;;;-141.59;100.00;61776.25;5063406;28;20210;-78
2022/12/30 06:30:21;;;;;;;10.37;6.37;;;;;;;-141.59;100.00;61776.25;5049141;28;20222;-78
2022/12/30 06:32:49;;;;;;;12.03;6.50;;;;;;;-141.59;100.00;61776.25;5052814;28;20202;-78
2022/12/30 06:35:16;;;;;;;8.20;5.70;;;;;;;-141.59;100.00;61776.25;5058872;28;20228;-78
2022/12/30 06:37:45;;;;;;;9.43;5.80;;;;;;;-141.59;100.00;61776.25;5060472;28;20210;-78
2022/12/30 06:40:12;;;;;;;8.77;5.80;;;;;;;-141.59;100.00;61776.25;5068807;28;20290;-78
2022/12/30 06:42:39;;;;;;;8.27;5.63;;;;;;;-141.59;100.00;61776.25;5069162;28;20236;-78
2022/12/30 06:45:13;;;;;;;6.00;4.90;;;;;;;-141.59;100.00;61776.25;5068624;28;20213;-78
2022/12/30 06:47:43;;;;;;;5.60;4.60;;;;;;;-141.59;100.00;61776.25;5067314;28;20234;-78
2022/12/30 06:50:11;;;;;;;7.53;5.47;;;;;;;-141.59;100.00;61776.25;5062328;28;20202;-78
2022/12/30 06:52:38;;;;;;;6.70;5.67;;;;;;;-141.59;100.00;61776.25;5060949;28;20224;-78
2022/12/30 06:55:07;;;;;;;6.50;5.17;;;;;;;-141.59;100.00;61776.25;5063040;28;20213;-79
2022/12/30 06:57:41;;;;;;;5.10;4.30;;;;;;;-141.59;100.00;61776.25;5052444;28;20205;-79
2022/12/30 07:00:10;;;;;;;7.27;4.17;;;;;;;-141.59;100.00;61776.25;5062394;28;20194;-80
2022/12/30 07:02:37;;;;;;;8.50;4.70;;;;;;;-141.59;100.00;61776.25;5061294;28;20217;-79
2022/12/30 07:05:07;;;;;;;6.80;5.13;;;;;;;-141.59;100.00;61776.25;5059774;28;20213;-78
2022/12/30 07:07:35;;;;;;;8.60;4.20;;;;;;;-141.59;100.00;61776.25;5066086;28;20336;-78
2022/12/30 07:10:02;;;;;;;6.00;4.53;;;;;;;-141.59;100.00;61776.25;5059701;28;20234;-79
2022/12/30 07:12:34;;;;;;;5.17;3.97;;;;;;;-141.59;100.00;61776.25;5059096;28;20237;-78
2022/12/30 07:15:01;;;;;;;6.83;4.87;;;;;;;-141.59;100.00;61776.25;5054551;28;20246;-78
2022/12/30 07:17:31;;;;;;;6.80;5.23;;;;;;;-141.59;100.00;61776.25;5060557;28;20197;-78
2022/12/30 07:19:58;;;;;;;7.40;5.00;;;;;;;-141.59;100.00;61776.25;5058710;28;20205;-78
2022/12/30 07:22:25;;;;;;;7.37;4.80;;;;;;;-141.59;100.00;61776.25;5063093;28;20241;-79
2022/12/30 07:24:52;;;;;;;5.27;4.10;;;;;;;-141.59;100.00;61776.25;5054067;28;20214;-78
2022/12/30 07:27:19;;;;;;;5.67;4.30;;;;;;;-141.59;100.00;61776.25;5057515;28;20205;-78
2022/12/30 07:29:47;;;;;;;5.97;3.97;;;;;;;-141.59;100.00;61776.25;5066286;28;20237;-79
2022/12/30 07:32:14;;;;;;;6.33;4.60;;;;;;;-141.59;100.00;61776.25;5063511;28;20206;-78
2022/12/30 07:34:42;;;;;;;8.40;5.80;;;;;;;-141.59;100.00;61776.25;5055175;28;20204;-78
2022/12/30 07:37:09;;;;;;;6.20;4.57;;;;;;;-141.59;100.00;61776.25;5066450;28;20198;-78
2022/12/30 07:39:38;;;;;;;6.17;4.90;;;;;;;-141.59;100.00;61776.25;5060392;28;20201;-78
2022/12/30 07:42:05;;;;;;;4.77;4.00;;;;;;;-141.59;100.00;61776.25;5056553;28;20226;-78
2022/12/30 07:44:32;;;;;;;6.80;5.23;;;;;;;-141.59;100.00;61776.25;5065476;28;20193;-78
2022/12/30 07:47:00;;;;;;;6.83;5.80;;;;;;;-141.59;100.00;61776.25;5071507;28;20205;-78
2022/12/30 07:49:28;;;;;;;5.57;4.83;;;;;;;-141.59;100.00;61776.25;5069672;28;20202;-78
2022/12/30 07:51:55;;;;;;;4.30;3.40;;;;;;;-141.59;100.00;61776.25;5058937;28;20202;-79
2022/12/30 07:54:22;;;;;;;3.43;2.23;;;;;;;-141.59;100.00;61776.25;5069296;28;20228;-78
2022/12/30 07:56:52;;;;;;;6.30;4.47;;;;;;;-141.59;100.00;61776.25;5062204;28;20300;-78
2022/12/30 07:59:21;;;;;;;5.57;3.20;;;;;;;-141.59;100.00;61776.25;5066515;28;20198;-78
2022/12/30 08:01:48;;;;;;;5.33;3.90;;;;;;;-141.59;100.00;61776.25;5062737;28;20210;-79
2022/12/30 08:04:19;;;;;;;5.70;4.43;;;;;;;-141.59;100.00;61776.25;5067007;28;20201;-79
2022/12/30 08:06:46;;;;;;;6.70;4.30;;;;;;;-141.59;100.00;61776.25;5065473;28;20203;-78
2022/12/30 08:09:14;;;;;;;6.40;4.20;;;;;;;-141.59;100.00;61776.25;5060257;28;20195;-79
2022/12/30 08:11:41;;;;;;;6.67;4.43;;;;;;;-141.59;100.00;61776.25;5060558;28;20303;-79
2022/12/30 08:14:08;;;;;;;6.97;4.53;;;;;;;-141.59;100.00;61776.25;5055865;28;20224;-79
2022/12/30 08:16:35;;;;;;;6.13;4.73;;;;;;;-141.59;100.00;61776.25;5070092;28;20221;-78
2022/12/30 08:19:02;;;;;;;9.33;5.77;;;;;;;-141.59;100.00;61776.25;5064212;28;20205;-79
2022/12/30 08:21:30;;;;;;;7.70;5.63;;;;;;;-141.59;100.00;61776.25;5069657;28;20289;-79
2022/12/30 08:23:58;;;;;;;7.57;5.47;;;;;;;-141.59;100.00;61776.25;5062214;28;20297;-79
2022/12/30 08:26:25;;;;;;;8.33;5.13;;;;;;;-141.59;100.00;61776.25;5069253;28;20225;-78
2022/12/30 08:28:52;;;;;;;7.20;5.37;;;;;;;-141.59;100.00;61776.25;5063132;28;20201;-79
2022/12/30 08:31:21;;;;;;;7.60;5.00;;;;;;;-141.59;100.00;61776.25;5059801;28;20201;-79
2022/12/30 08:33:49;;;;;;;8.60;4.50;;;;;;;-141.59;100.00;61776.25;5063557;28;20287;-78
2022/12/30 08:36:18;;;;;;;5.77;4.30;;;;;;;-141.59;100.00;61776.25;5054204;28;20220;-79
2022/12/30 08:38:50;;;;;;;6.13;5.07;;;;;;;-141.59;100.00;61776.25;5062758;28;20260;-78
2022/12/30 08:41:19;;;;;;;6.20;4.80;;;;;;;-141.59;100.00;61776.25;5066964;28;20210;-78
2022/12/30 08:43:47;;;;;;;6.97;5.30;;;;;;;-141.59;100.00;61776.25;5056302;28;20210;-78
2022/12/30 08:46:15;;;;;;;10.00;6.47;;;;;;;-141.59;100.00;61776.25;5062445;28;20317;-78
2022/12/30 08:48:42;;;;;;;7.07;5.40;;;;;;;-141.59;100.00;61776.25;5074314;28;20197;-79
2022/12/30 08:51:10;;;;;;;8.33;5.80;;;;;;;-141.59;100.00;61776.25;5070629;28;20205;-79
2022/12/30 08:53:41;;;;;;;8.83;5.73;;;;;;;-141.59;100.00;61776.25;5068425;28;20206;-79
2022/12/30 08:56:14;;;;;;;6.40;5.00;;;;;;;-141.59;100.00;61776.25;5077322;28;20297;-78
2022/12/30 08:58:41;;;;;;;6.63;5.00;;;;;;;-141.59;100.00;61776.25;5062787;28;20228;-79
2022/12/30 09:01:12;;;;;;;7.43;4.70;;;;;;;-141.59;100.00;61776.25;5054671;28;20344;-78
2022/12/30 09:03:42;;;;;;;5.97;4.23;;;;;;;-141.59;100.00;61776.25;5068515;28;20189;-78
2022/12/30 09:06:11;;;;;;;5.13;3.50;;;;;;;-141.59;100.00;61776.25;5057001;28;20221;-79
2022/12/30 09:08:38;;;;;;;5.13;3.90;;;;;;;-141.59;100.00;61776.25;5053782;28;20198;-79
2022/12/30 09:11:14;;;;;;;4.60;3.40;;;;;;;-141.59;100.00;61776.25;5056891;28;20221;-79
2022/12/30 09:13:41;;;;;;;4.93;3.23;;;;;;;-141.59;100.00;61776.25;5072075;28;20209;-78
2022/12/30 09:16:11;;;;;;;5.23;4.27;;;;;;;-141.59;100.00;61776.25;5064302;28;20200;-80
2022/12/30 09:18:38;;;;;;;6.30;3.97;;;;;;;-141.59;100.00;61776.25;5058040;28;20217;-79
2022/12/30 09:21:08;;;;;;;3.83;2.87;;;;;;;-141.59;100.00;61776.25;5068082;28;20201;-79
2022/12/30 09:23:36;;;;;;;4.30;3.20;;;;;;;-141.59;100.00;61776.25;5072183;28;20309;-79
2022/12/30 09:26:04;;;;;;;3.07;2.30;;;;;;;-141.59;100.00;61776.25;5060825;28;20198;-78
2022/12/30 09:28:36;;;;;;;6.77;4.90;;;;;;;-141.59;100.00;61776.25;5054649;28;20541;-79
2022/12/30 09:31:03;;;;;;;3.40;2.20;;;;;;;-141.59;100.00;61776.25;5075221;28;20300;-78
2022/12/30 09:33:30;;;;;;;3.93;3.30;;;;;;;-141.59;100.00;61776.25;5071268;28;20198;-78
2022/12/30 09:38:52;;;;;;;5.77;4.30;;;;;;;-141.59;100.00;61776.25;5021605;28;20306;-80
2022/12/30 09:44:25;;;;;;;8.00;5.57;;;;;;;-141.59;100.00;61776.25;5028320;28;20261;-80
2022/12/30 09:47:04;;;;;;;5.43;4.00;;;;;;;-141.59;100.00;61776.25;5029368;28;20210;-81
2022/12/30 09:49:36;;;;;;;6.63;4.30;;;;;;;-141.59;100.00;61776.25;5015757;28;20204;-80
2022/12/30 09:52:11;;;;;;;5.37;3.77;;;;;;;-141.59;100.00;61776.25;5021982;28;20313;-80
2022/12/30 09:54:44;;;;;;;4.07;3.00;;;;;;;-141.59;100.00;61776.25;5035338;28;20206;-80
2022/12/30 09:57:32;;;;;;;3.87;2.70;;;;;;;-141.59;100.00;61776.25;5029020;28;20230;-81
2022/12/30 10:00:07;;;;;;;3.87;2.33;;;;;;;-141.59;100.00;61776.25;5022150;28;20222;-80
2022/12/30 10:02:54;;;;;;;3.87;2.30;;;;;;;-141.59;100.00;61776.25;5027086;28;20250;-80
2022/12/30 10:05:40;;;;;;;2.77;2.20;;;;;;;-141.59;100.00;61776.25;5017866;28;20203;-80
2022/12/30 10:08:30;;;;;;;4.90;2.63;;;;;;;-141.59;100.00;61776.25;5024341;28;20221;-80
2022/12/30 10:11:14;;;;;;;2.77;2.30;;;;;;;-141.59;100.00;61776.25;5029680;28;20254;-78
2022/12/30 10:13:46;;;;;;;3.97;2.43;;;;;;;-141.59;100.00;61776.25;5022653;28;20222;-78
2022/12/30 10:16:23;;;;;;;3.63;2.27;;;;;;;-141.59;100.00;61776.25;5037491;28;20209;-80
2022/12/30 10:19:05;;;;;;;3.57;2.70;;;;;;;-141.59;100.00;61776.25;5036864;28;20216;-80
2022/12/30 10:21:45;;;;;;;3.50;2.63;;;;;;;-141.59;100.00;61776.25;5022566;28;20205;-81
2022/12/30 10:24:24;;;;;;;3.87;2.60;;;;;;;-141.59;100.00;61776.25;5020330;28;20203;-80
2022/12/30 10:26:52;;;;;;;3.07;2.60;;;;;;;-141.59;100.00;61776.25;5019313;28;20245;-80
2022/12/30 10:29:22;;;;;;;5.03;2.30;;;;;;;-141.59;100.00;61776.25;5023372;28;20266;-80
2022/12/30 10:31:54;;;;;;;2.53;2.10;;;;;;;-141.59;100.00;61776.25;5023170;28;20211;-81
2022/12/30 10:34:25;;;;;;;3.30;2.30;;;;;;;-141.59;100.00;61776.25;5027295;28;20195;-81
2022/12/30 10:36:59;;;;;;;3.77;2.43;;;;;;;-141.59;100.00;61776.25;5036231;28;20245;-80
2022/12/30 10:39:31;;;;;;;4.10;2.80;;;;;;;-141.59;100.00;61776.25;5029668;28;20222;-80
2022/12/30 10:42:25;;;;;;;3.73;2.43;;;;;;;-141.59;100.00;61776.25;5016224;28;20233;-81
2022/12/30 10:45:18;;;;;;;3.67;2.60;;;;;;;-141.59;100.00;61776.25;5024728;28;20203;-81
2022/12/30 10:47:57;;;;;;;5.83;2.40;;;;;;;-141.59;100.00;61776.25;5016381;28;20226;-80
2022/12/30 10:50:41;;;;;;;3.20;2.20;;;;;;;-141.59;100.00;61776.25;5020833;28;20195;-81
2022/12/30 10:53:16;;;;;;;3.10;2.60;;;;;;;-141.59;100.00;61776.25;5025205;28;20201;-80
2022/12/30 10:55:48;;;;;;;3.13;2.70;;;;;;;-141.59;100.00;61776.25;5028076;28;20256;-80
2022/12/30 10:58:26;;;;;;;4.63;3.00;;;;;;;-141.59;100.00;61776.25;5037196;28;20264;-80
2022/12/30 11:00:53;;;;;;;3.07;2.67;;;;;;;-141.59;100.00;61776.25;5035246;28;20206;-78
2022/12/30 11:03:33;;;;;;;3.17;2.60;;;;;;;-141.59;100.00;61776.25;5026428;28;20218;-78
2022/12/30 11:06:17;;;;;;;3.13;2.33;;;;;;;-141.59;100.00;61776.25;5038861;28;20213;-79
2022/12/30 11:08:45;;;;;;;3.30;2.47;;;;;;;-141.59;100.00;61776.25;5039423;28;20213;-79
2022/12/30 11:11:12;;;;;;;2.80;2.20;;;;;;;-141.59;100.00;61776.25;5040800;28;20222;-78
2022/12/30 11:16:27;;;;;;;2.83;2.30;;;;;;;-141.59;100.00;61776.25;5030580;28;20212;-78
2022/12/30 11:18:58;;;;;;;3.07;2.43;;;;;;;-141.59;100.00;61776.25;5046695;28;20195;-78
2022/12/30 11:21:26;;;;;;;1.30;1.20;;;;;;;-141.59;100.00;61776.25;5027099;28;20297;-77
2022/12/30 11:23:55;;;;;;;0.70;0.70;;;;;;;-141.59;100.00;61776.25;5031867;28;20231;-79
2022/12/30 11:26:24;;;;;;;0.70;0.70;;;;;;;-141.59;100.00;61776.25;5025692;28;20233;-79
2022/12/30 11:28:54;;;;;;;0.60;0.60;;;;;;;-141.59;100.00;61776.25;5024658;28;20203;-80
2022/12/30 11:31:23;;;;;;;0.60;0.60;;;;;;;-141.59;100.00;61776.25;5030365;28;20195;-81
2022/12/30 11:33:52;;;;;;;0.60;0.60;;;;;;;-141.59;100.00;61776.25;5026485;28;20209;-81
2022/12/30 11:36:35;;;;;;;0.70;0.70;;;;;;;-141.59;100.00;61776.25;5016666;28;20207;-81
2022/12/30 11:39:26;;;;;;;1.40;1.30;;;;;;;-141.59;100.00;61776.25;5019258;28;20207;-81
2022/12/30 11:41:55;;;;;;;0.70;0.70;;;;;;;-141.59;100.00;61776.25;5035293;28;20230;-81
2022/12/30 11:44:24;;;;;;;1.13;0.60;;;;;;;-141.59;100.00;61776.25;5023403;28;20222;-81
2022/12/30 11:46:53;;;;;;;0.60;0.60;;;;;;;-141.59;100.00;61776.25;5044265;28;20311;-80
2022/12/30 11:49:34;;;;;;;0.60;0.60;;;;;;;-141.59;100.00;61776.25;5050063;28;20214;-80
2022/12/30 11:52:11;;;;;;;1.43;0.67;;;;;;;-141.59;100.00;61776.25;5036913;28;20433;-80
2022/12/30 11:54:43;;;;;;;1.20;0.80;;;;;;;-141.59;100.00;61776.25;5047987;28;20268;-80
2022/12/30 11:57:22;;;;;;;0.70;0.70;;;;;;;-141.59;100.00;61776.25;5022502;28;20207;-81
2022/12/30 11:59:53;;;;;;;4.97;1.50;;;;;;;-141.59;100.00;61776.25;5028908;28;20214;-80
2022/12/30 12:02:25;;;;;;;2.43;0.90;;;;;;;-141.59;100.00;61776.25;5031289;28;20207;-80
2022/12/30 12:04:52;;;;;;;1.70;0.63;;;;;;;-141.59;100.00;61776.25;5028704;28;20199;-80
2022/12/30 12:07:25;;;;;;;0.60;0.60;;;;;;;-141.59;100.00;61776.25;5045984;28;20191;-83
2022/12/30 12:10:01;;;;;;;0.70;0.70;;;;;;;-141.59;100.00;61776.25;5029529;28;20210;-83
2022/12/30 12:12:33;;;;;;;1.20;0.60;;;;;;;-141.59;100.00;61776.25;5035000;28;20336;-82
2022/12/30 12:15:11;;;;;;;1.23;0.80;;;;;;;-141.59;100.00;61776.25;5021583;28;20204;-81
2022/12/30 12:17:45;;;;;;;0.70;0.70;;;;;;;-141.59;100.00;61776.25;5044146;28;20276;-80
2022/12/30 12:20:21;;;;;;;0.77;0.77;;;;;;;-141.59;100.00;61776.25;5047037;28;20201;-80
2022/12/30 12:23:00;;;;;;;0.67;0.63;;;;;;;-141.59;100.00;61776.25;5037902;28;20256;-80
2022/12/30 12:25:33;;;;;;;0.93;0.70;;;;;;;-141.59;100.00;61776.25;5021020;28;20201;-80
2022/12/30 12:28:00;;;;;;;1.00;0.70;;;;;;;-141.59;100.00;61776.25;5040447;28;20200;-80
2022/12/30 12:30:54;;;;;;;0.70;0.70;;;;;;;-141.59;100.00;61776.25;5042942;28;20206;-80